Time;durP1;ratioP1;P1;durP2;ratioP2;P2;SDS_P1;SDS_P2;PMS_P1;PMS_P2;Temp;Humidity;BMP_temperature;BMP_pressure;BME280_temperature;BME280_humidity;BME280_pressure;Samples;Min_cycle;Max_cycle;Signal;HPM_P1;HPM_P2
2021/06/22 00:00:54;;;;;;;33.22;7.18;;;;;;;;;;5076422;28;20029;-71
2021/06/22 00:03:20;;;;;;;34.00;7.32;;;;;;;;;;5076160;28;20068;-70
2021/06/22 00:05:46;;;;;;;32.47;7.25;;;;;;;;;;5074382;28;20388;-71
2021/06/22 00:08:12;;;;;;;39.17;6.78;;;;;;;;;;5075703;28;20025;-71
2021/06/22 00:10:38;;;;;;;36.55;7.18;;;;;;;;;;5075938;28;20056;-71
2021/06/22 00:13:04;;;;;;;34.78;7.50;;;;;;;;;;5076096;28;20056;-71
2021/06/22 00:15:31;;;;;;;27.38;6.90;;;;;;;;;;5076024;28;20021;-70
2021/06/22 00:17:57;;;;;;;30.33;6.72;;;;;;;;;;5075757;28;20358;-70
2021/06/22 00:20:24;;;;;;;30.80;7.03;;;;;;;;;;5075763;28;20036;-71
2021/06/22 00:22:50;;;;;;;29.63;6.95;;;;;;;;;;5076042;28;20037;-71
2021/06/22 00:25:17;;;;;;;36.47;7.18;;;;;;;;;;5075713;28;20029;-70
2021/06/22 00:27:43;;;;;;;35.00;7.20;;;;;;;;;;5075997;28;20382;-71
2021/06/22 00:30:10;;;;;;;33.55;7.53;;;;;;;;;;5074420;28;20366;-71
2021/06/22 00:32:37;;;;;;;32.80;6.15;;;;;;;;;;5075784;28;20020;-71
2021/06/22 00:35:04;;;;;;;33.53;8.10;;;;;;;;;;5075433;28;20381;-70
2021/06/22 00:37:30;;;;;;;34.35;7.15;;;;;;;;;;5075499;28;20032;-70
2021/06/22 00:39:56;;;;;;;36.38;7.68;;;;;;;;;;5075283;28;20048;-71
2021/06/22 00:42:22;;;;;;;26.10;6.82;;;;;;;;;;5075215;28;20032;-70
2021/06/22 00:44:52;;;;;;;40.35;7.85;;;;;;;;;;5075584;28;20512;-71
2021/06/22 00:47:19;;;;;;;35.08;8.02;;;;;;;;;;5075315;28;20111;-70
2021/06/22 00:49:45;;;;;;;55.30;8.23;;;;;;;;;;5075163;28;20082;-71
2021/06/22 00:52:11;;;;;;;32.85;7.78;;;;;;;;;;5075236;28;20102;-70
2021/06/22 00:54:37;;;;;;;35.72;8.18;;;;;;;;;;5075337;28;20020;-71
2021/06/22 00:57:07;;;;;;;36.45;7.50;;;;;;;;;;5075331;28;20027;-71
2021/06/22 00:59:34;;;;;;;35.67;7.55;;;;;;;;;;5070745;28;20021;-71
2021/06/22 01:02:01;;;;;;;33.78;7.70;;;;;;;;;;5072323;28;20025;-71
2021/06/22 01:04:28;;;;;;;30.27;7.30;;;;;;;;;;5073413;28;20457;-70
2021/06/22 01:06:55;;;;;;;30.17;7.60;;;;;;;;;;5074832;28;20107;-71
2021/06/22 01:09:21;;;;;;;34.53;7.97;;;;;;;;;;5074796;28;20063;-71
2021/06/22 01:11:47;;;;;;;35.60;7.97;;;;;;;;;;5074624;28;20473;-71
2021/06/22 01:14:13;;;;;;;34.25;8.18;;;;;;;;;;5074485;28;20409;-71
2021/06/22 01:16:39;;;;;;;33.92;8.18;;;;;;;;;;5074675;28;20384;-70
2021/06/22 01:19:07;;;;;;;41.95;8.25;;;;;;;;;;5074547;28;20385;-71
2021/06/22 01:21:34;;;;;;;44.55;8.20;;;;;;;;;;5074267;28;20021;-70
2021/06/22 01:24:14;;;;;;;33.28;7.40;;;;;;;;;;5074198;28;20033;-71
2021/06/22 01:26:44;;;;;;;38.38;8.00;;;;;;;;;;5074511;28;20028;-70
2021/06/22 01:29:10;;;;;;;38.53;7.28;;;;;;;;;;5074219;28;20545;-70
2021/06/22 01:31:37;;;;;;;27.60;7.70;;;;;;;;;;5073205;28;20487;-70
2021/06/22 01:34:03;;;;;;;35.15;8.20;;;;;;;;;;5074502;28;20020;-71
2021/06/22 01:36:32;;;;;;;38.63;7.75;;;;;;;;;;5056561;28;20123;-70
2021/06/22 01:38:58;;;;;;;30.08;8.00;;;;;;;;;;5074170;28;20020;-71
2021/06/22 01:41:25;;;;;;;31.75;7.70;;;;;;;;;;5073005;28;20672;-70
2021/06/22 01:43:51;;;;;;;45.20;8.20;;;;;;;;;;5073805;28;20029;-70
2021/06/22 01:46:17;;;;;;;31.00;7.38;;;;;;;;;;5073954;28;20056;-71
2021/06/22 01:48:43;;;;;;;31.52;7.97;;;;;;;;;;5074423;28;20024;-70
2021/06/22 01:51:09;;;;;;;29.58;7.68;;;;;;;;;;5073960;28;20032;-70
2021/06/22 01:53:36;;;;;;;31.92;7.75;;;;;;;;;;5074305;28;20028;-71
2021/06/22 01:56:02;;;;;;;26.98;7.05;;;;;;;;;;5074125;28;20030;-70
2021/06/22 01:58:29;;;;;;;30.35;8.10;;;;;;;;;;5073673;28;20021;-70
2021/06/22 02:00:56;;;;;;;36.20;7.13;;;;;;;;;;5074028;28;20051;-71
2021/06/22 02:03:25;;;;;;;31.17;7.20;;;;;;;;;;5073940;28;20043;-71
2021/06/22 02:05:51;;;;;;;31.90;6.88;;;;;;;;;;5073929;28;20074;-71
2021/06/22 02:08:17;;;;;;;30.48;7.13;;;;;;;;;;5073907;28;20025;-70
2021/06/22 02:10:44;;;;;;;35.45;6.88;;;;;;;;;;5073679;28;20491;-71
2021/06/22 02:13:10;;;;;;;30.85;6.88;;;;;;;;;;5073797;28;20065;-71
2021/06/22 02:15:37;;;;;;;39.05;8.05;;;;;;;;;;5073595;28;20484;-71
2021/06/22 02:18:03;;;;;;;28.75;7.53;;;;;;;;;;5073672;28;20077;-70
2021/06/22 02:20:30;;;;;;;31.83;7.20;;;;;;;;;;5073619;28;20027;-72
2021/06/22 02:22:56;;;;;;;36.70;8.18;;;;;;;;;;5073599;28;20025;-71
2021/06/22 02:25:22;;;;;;;34.78;8.38;;;;;;;;;;5073802;28;20024;-71
2021/06/22 02:27:48;;;;;;;44.22;9.32;;;;;;;;;;5073346;28;20117;-70
2021/06/22 02:30:16;;;;;;;28.90;7.45;;;;;;;;;;5073133;28;20032;-70
2021/06/22 02:32:42;;;;;;;36.35;7.70;;;;;;;;;;5073125;28;20021;-71
2021/06/22 02:35:10;;;;;;;33.25;8.90;;;;;;;;;;5073226;28;20424;-71
2021/06/22 02:37:36;;;;;;;23.80;7.30;;;;;;;;;;5073021;28;20020;-71
2021/06/22 02:40:03;;;;;;;38.15;7.80;;;;;;;;;;5073179;28;20044;-71
2021/06/22 02:42:29;;;;;;;34.20;8.63;;;;;;;;;;5073132;28;20032;-71
2021/06/22 02:44:55;;;;;;;40.60;9.13;;;;;;;;;;5073326;28;20029;-71
2021/06/22 02:47:21;;;;;;;31.55;8.93;;;;;;;;;;5073203;28;20028;-71
2021/06/22 02:49:47;;;;;;;39.75;9.63;;;;;;;;;;5073247;28;20020;-71
2021/06/22 02:52:13;;;;;;;39.88;8.32;;;;;;;;;;5072908;28;20024;-71
2021/06/22 02:54:39;;;;;;;41.58;8.18;;;;;;;;;;5073144;28;20361;-71
2021/06/22 02:57:06;;;;;;;43.95;8.63;;;;;;;;;;5072965;28;20020;-71
2021/06/22 02:59:33;;;;;;;35.38;7.75;;;;;;;;;;5073130;28;20149;-71
2021/06/22 03:01:59;;;;;;;34.08;7.28;;;;;;;;;;5072897;28;20056;-70
2021/06/22 03:04:25;;;;;;;43.85;7.78;;;;;;;;;;5073322;28;20117;-71
2021/06/22 03:06:51;;;;;;;33.47;8.48;;;;;;;;;;5073077;28;20028;-70
2021/06/22 03:09:17;;;;;;;32.00;7.97;;;;;;;;;;5072957;28;20024;-70
2021/06/22 03:11:43;;;;;;;29.45;7.85;;;;;;;;;;5073070;28;20027;-71
2021/06/22 03:14:09;;;;;;;36.90;7.43;;;;;;;;;;5072690;28;20024;-71
2021/06/22 03:16:35;;;;;;;34.60;7.28;;;;;;;;;;5072944;28;20028;-70
2021/06/22 03:19:02;;;;;;;36.35;7.65;;;;;;;;;;5072839;28;20438;-70
2021/06/22 03:21:28;;;;;;;30.23;7.80;;;;;;;;;;5072949;28;20035;-70
2021/06/22 03:23:54;;;;;;;34.95;7.38;;;;;;;;;;5076847;28;20035;-70
2021/06/22 03:26:20;;;;;;;32.10;7.43;;;;;;;;;;5077190;28;20029;-70
2021/06/22 03:28:46;;;;;;;32.30;8.10;;;;;;;;;;5077055;28;20027;-71
2021/06/22 03:31:12;;;;;;;36.33;8.30;;;;;;;;;;5076988;28;20439;-71
2021/06/22 03:33:38;;;;;;;28.83;7.22;;;;;;;;;;5076652;28;20028;-71
2021/06/22 03:36:04;;;;;;;33.25;7.25;;;;;;;;;;5076953;28;20028;-71
2021/06/22 03:38:30;;;;;;;29.30;7.50;;;;;;;;;;5076844;28;20086;-71
2021/06/22 03:40:56;;;;;;;32.85;7.55;;;;;;;;;;5076453;28;20048;-71
2021/06/22 03:43:23;;;;;;;33.80;7.45;;;;;;;;;;5076513;28;20028;-70
2021/06/22 03:45:49;;;;;;;36.22;8.70;;;;;;;;;;5076670;28;20037;-71
2021/06/22 03:48:15;;;;;;;31.77;8.10;;;;;;;;;;5076428;28;20042;-70
2021/06/22 03:50:41;;;;;;;31.73;8.13;;;;;;;;;;5076651;28;20031;-70
2021/06/22 03:53:07;;;;;;;31.05;8.50;;;;;;;;;;5076510;28;20020;-70
2021/06/22 03:55:33;;;;;;;36.75;7.40;;;;;;;;;;5076472;28;20036;-71
2021/06/22 03:58:01;;;;;;;39.30;8.40;;;;;;;;;;5076703;28;20028;-70
2021/06/22 04:00:28;;;;;;;32.63;8.32;;;;;;;;;;5076466;28;20032;-70
2021/06/22 04:02:58;;;;;;;27.00;8.48;;;;;;;;;;5076210;28;20054;-70
2021/06/22 04:05:25;;;;;;;32.03;8.23;;;;;;;;;;5076194;28;20025;-70
2021/06/22 04:07:51;;;;;;;37.83;8.07;;;;;;;;;;5076283;28;20473;-71
2021/06/22 04:10:17;;;;;;;37.60;8.10;;;;;;;;;;5075246;28;20419;-70
2021/06/22 04:12:43;;;;;;;27.10;8.02;;;;;;;;;;5076044;28;20043;-71
2021/06/22 04:15:10;;;;;;;33.80;7.88;;;;;;;;;;5076005;28;20035;-70
2021/06/22 04:17:36;;;;;;;29.98;7.93;;;;;;;;;;5076223;28;20027;-70
2021/06/22 04:20:03;;;;;;;28.98;7.75;;;;;;;;;;5076166;28;20115;-71
2021/06/22 04:22:29;;;;;;;33.08;7.57;;;;;;;;;;5075835;28;20025;-70
2021/06/22 04:24:55;;;;;;;33.67;8.35;;;;;;;;;;5075761;28;20493;-71
2021/06/22 04:27:21;;;;;;;39.40;8.18;;;;;;;;;;5075862;28;20495;-71
2021/06/22 04:29:47;;;;;;;26.65;7.22;;;;;;;;;;5075760;28;20029;-70
2021/06/22 04:32:13;;;;;;;31.95;7.75;;;;;;;;;;5075843;28;20093;-70
2021/06/22 04:34:39;;;;;;;34.42;7.28;;;;;;;;;;5075362;28;20162;-70
2021/06/22 04:37:05;;;;;;;35.60;9.02;;;;;;;;;;5075550;28;20484;-71
2021/06/22 04:39:31;;;;;;;35.95;7.65;;;;;;;;;;5075305;28;20041;-71
2021/06/22 04:41:57;;;;;;;42.67;7.05;;;;;;;;;;5075711;28;20078;-70
2021/06/22 04:44:24;;;;;;;42.20;7.78;;;;;;;;;;5075334;28;20123;-70
2021/06/22 04:46:50;;;;;;;42.28;7.97;;;;;;;;;;5075358;28;20469;-71
2021/06/22 04:49:16;;;;;;;41.67;8.10;;;;;;;;;;5075389;28;20028;-71
2021/06/22 04:51:42;;;;;;;44.65;7.70;;;;;;;;;;5075406;28;20461;-71
2021/06/22 04:54:10;;;;;;;51.17;7.50;;;;;;;;;;5075383;28;20392;-71
2021/06/22 04:56:36;;;;;;;44.22;7.05;;;;;;;;;;5075246;28;20017;-71
2021/06/22 04:59:03;;;;;;;44.65;7.43;;;;;;;;;;5075383;28;20028;-71
2021/06/22 05:01:29;;;;;;;52.20;7.03;;;;;;;;;;5075089;28;20028;-71
2021/06/22 05:03:55;;;;;;;42.22;7.50;;;;;;;;;;5075218;28;20067;-71
2021/06/22 05:06:21;;;;;;;44.42;7.03;;;;;;;;;;5075351;28;20438;-70
2021/06/22 05:08:47;;;;;;;44.13;7.55;;;;;;;;;;5075358;28;20036;-71
2021/06/22 05:11:13;;;;;;;48.47;7.93;;;;;;;;;;5075083;28;20027;-70
2021/06/22 05:13:41;;;;;;;47.40;8.00;;;;;;;;;;5074930;28;20036;-71
2021/06/22 05:16:07;;;;;;;41.08;6.68;;;;;;;;;;5072809;28;20020;-72
2021/06/22 05:18:33;;;;;;;46.95;9.75;;;;;;;;;;5073556;28;20059;-71
2021/06/22 05:20:59;;;;;;;35.30;7.05;;;;;;;;;;5073597;28;20028;-70
2021/06/22 05:23:25;;;;;;;40.70;7.28;;;;;;;;;;5073859;28;20063;-71
2021/06/22 05:25:51;;;;;;;41.50;6.45;;;;;;;;;;5073955;28;20095;-71
2021/06/22 05:28:17;;;;;;;41.35;6.78;;;;;;;;;;5074730;28;20043;-71
2021/06/22 05:30:43;;;;;;;36.92;7.03;;;;;;;;;;5074579;28;20477;-71
2021/06/22 05:33:09;;;;;;;41.17;6.72;;;;;;;;;;5074772;28;20508;-71
2021/06/22 05:35:35;;;;;;;35.10;6.07;;;;;;;;;;5074549;28;20047;-71
2021/06/22 05:38:01;;;;;;;41.05;7.53;;;;;;;;;;5074739;28;20035;-71
2021/06/22 05:40:27;;;;;;;37.67;6.45;;;;;;;;;;5073798;28;20094;-71
2021/06/22 05:42:53;;;;;;;30.98;6.00;;;;;;;;;;5071973;28;20039;-72
2021/06/22 05:45:20;;;;;;;50.15;7.97;;;;;;;;;;5073573;28;20389;-72
2021/06/22 05:47:46;;;;;;;34.83;6.45;;;;;;;;;;5074156;28;20111;-71
2021/06/22 05:50:12;;;;;;;37.10;6.88;;;;;;;;;;5073651;28;20036;-71
2021/06/22 05:52:40;;;;;;;35.40;7.25;;;;;;;;;;5073464;28;20024;-71
2021/06/22 05:55:16;;;;;;;46.95;8.13;;;;;;;;;;5073608;28;20040;-72
2021/06/22 05:57:46;;;;;;;43.97;6.97;;;;;;;;;;5073028;28;20431;-72
2021/06/22 06:00:12;;;;;;;35.95;7.47;;;;;;;;;;5072566;28;20500;-71
2021/06/22 06:02:38;;;;;;;44.00;7.25;;;;;;;;;;5073392;28;20111;-71
2021/06/22 06:05:04;;;;;;;33.53;7.03;;;;;;;;;;5073835;28;20103;-71
2021/06/22 06:07:31;;;;;;;34.35;7.35;;;;;;;;;;5073801;28;20013;-71
2021/06/22 06:09:57;;;;;;;39.15;6.43;;;;;;;;;;5073307;28;20171;-71
2021/06/22 06:12:23;;;;;;;45.97;6.25;;;;;;;;;;5073627;28;20535;-71
2021/06/22 06:14:49;;;;;;;36.78;6.45;;;;;;;;;;5073706;28;20020;-74
2021/06/22 06:17:16;;;;;;;36.92;6.10;;;;;;;;;;5073746;28;20025;-73
2021/06/22 06:19:42;;;;;;;33.30;6.85;;;;;;;;;;5073418;28;20021;-72
2021/06/22 06:22:08;;;;;;;52.05;7.88;;;;;;;;;;5073542;28;20025;-72
2021/06/22 06:24:34;;;;;;;34.22;5.97;;;;;;;;;;5073872;28;20036;-72
2021/06/22 06:27:06;;;;;;;32.33;6.72;;;;;;;;;;5073416;28;20516;-72
2021/06/22 06:32:05;;;;;;;30.58;6.00;;;;;;;;;;5073846;28;20025;-72
2021/06/22 06:34:31;;;;;;;34.83;6.25;;;;;;;;;;5073518;28;20063;-71
2021/06/22 06:36:57;;;;;;;39.90;7.05;;;;;;;;;;5073411;28;20048;-71
2021/06/22 06:39:23;;;;;;;35.70;6.68;;;;;;;;;;5071844;28;20481;-72
2021/06/22 06:41:49;;;;;;;39.15;7.38;;;;;;;;;;5071622;28;20495;-71
2021/06/22 06:44:15;;;;;;;38.15;6.70;;;;;;;;;;5072791;28;20044;-73
2021/06/22 06:46:41;;;;;;;29.33;6.32;;;;;;;;;;5073132;28;20021;-72
2021/06/22 06:49:07;;;;;;;32.30;6.13;;;;;;;;;;5072952;28;20028;-72
2021/06/22 06:51:33;;;;;;;44.97;7.03;;;;;;;;;;5072462;28;20104;-72
2021/06/22 06:53:59;;;;;;;36.83;6.68;;;;;;;;;;5072656;28;20035;-72
2021/06/22 06:56:25;;;;;;;33.53;6.55;;;;;;;;;;5071592;28;20036;-72
2021/06/22 06:58:51;;;;;;;33.22;6.78;;;;;;;;;;5072432;28;20119;-73
2021/06/22 07:01:17;;;;;;;33.42;6.85;;;;;;;;;;5072808;28;20560;-72
2021/06/22 07:03:44;;;;;;;33.38;6.82;;;;;;;;;;5072714;28;20147;-73
2021/06/22 07:06:11;;;;;;;33.63;7.00;;;;;;;;;;5072565;28;20109;-72
2021/06/22 07:08:37;;;;;;;34.55;5.95;;;;;;;;;;5072971;28;20056;-73
2021/06/22 07:11:03;;;;;;;38.85;6.35;;;;;;;;;;5072636;28;20060;-72
2021/06/22 07:13:29;;;;;;;34.92;6.93;;;;;;;;;;5072566;28;20056;-72
2021/06/22 07:15:54;;;;;;;45.70;6.50;;;25.90;62.50;;;;;;5072644;28;20028;-72
2021/06/22 07:18:20;;;;;;;40.22;7.13;;;26.80;62.90;;;;;;5072240;28;20036;-72
2021/06/22 07:20:47;;;;;;;33.45;6.85;;;;;;;;;;5072847;28;20059;-72
2021/06/22 07:23:13;;;;;;;32.38;6.30;;;;;;;;;;5072810;28;20024;-72
2021/06/22 07:25:39;;;;;;;33.17;6.53;;;;;;;;;;5072372;28;20024;-72
2021/06/22 07:28:05;;;;;;;34.33;6.60;;;;;;;;;;5070863;28;20032;-73
2021/06/22 07:30:32;;;;;;;29.30;6.10;;;;;;;;;;5070405;28;20028;-72
2021/06/22 07:32:58;;;;;;;34.05;6.47;;;;;;;;;;5071679;28;20024;-72
2021/06/22 07:35:24;;;;;;;34.80;8.10;;;;;;;;;;5072543;28;20478;-72
2021/06/22 07:37:51;;;;;;;33.75;6.70;;;;;;;;;;5072326;28;20024;-72
2021/06/22 07:40:17;;;;;;;33.80;6.22;;;;;;;;;;5070692;28;20052;-72
2021/06/22 07:42:44;;;;;;;35.60;6.60;;;;;;;;;;5071654;28;20040;-72
2021/06/22 07:45:10;;;;;;;32.42;6.80;;;;;;;;;;5072365;28;20025;-71
2021/06/22 07:47:36;;;;;;;33.72;5.50;;;;;;;;;;5072242;28;20020;-71
2021/06/22 07:50:04;;;;;;;29.08;5.90;;;;;;;;;;5072426;28;20021;-71
2021/06/22 07:52:30;;;;;;;34.35;6.90;;;;;;;;;;5072586;28;20024;-72
2021/06/22 07:54:56;;;;;;;31.48;7.05;;;;;;;;;;5072419;28;20027;-73
2021/06/22 07:57:22;;;;;;;33.67;7.30;;;;;;;;;;5072178;28;20096;-72
2021/06/22 07:59:48;;;;;;;25.55;6.40;;;;;;;;;;5072372;28;20017;-72
2021/06/22 08:02:14;;;;;;;29.17;6.90;;;;;;;;;;5072395;28;20032;-71
2021/06/22 08:04:40;;;;;;;32.78;6.35;;;;;;;;;;5072530;28;20036;-72
2021/06/22 08:07:06;;;;;;;25.88;6.20;;;;;;;;;;5072307;28;20104;-71
2021/06/22 08:09:32;;;;;;;30.77;6.40;;;;;;;;;;5075248;28;20028;-71
2021/06/22 08:11:59;;;;;;;34.85;6.88;;;;;;;;;;5076050;28;20035;-72
2021/06/22 08:14:25;;;;;;;33.60;7.28;;;;;;;;;;5075981;28;20124;-71
2021/06/22 08:16:51;;;;;;;42.15;7.00;;;;;;;;;;5075925;28;20426;-72
2021/06/22 08:19:17;;;;;;;31.27;6.47;;;;;;;;;;5075830;28;20067;-72
2021/06/22 08:21:43;;;;;;;40.13;6.22;;;;;;;;;;5075808;28;20052;-72
2021/06/22 08:24:09;;;;;;;39.20;6.88;;;;;;;;;;5075786;28;20032;-71
2021/06/22 08:26:35;;;;;;;29.65;6.22;;;;;;;;;;5075875;28;20453;-72
2021/06/22 08:29:02;;;;;;;39.50;6.45;;;;;;;;;;5075699;28;20427;-71
2021/06/22 08:31:28;;;;;;;32.55;6.40;;;;;;;;;;5075452;28;20039;-71
2021/06/22 08:33:54;;;;;;;28.42;6.68;;;;;;;;;;5075837;28;20021;-71
2021/06/22 08:36:20;;;;;;;38.92;6.65;;;;;;;;;;5075665;28;20040;-71
2021/06/22 08:38:46;;;;;;;41.28;6.53;;;;;;;;;;5076134;28;20021;-71
2021/06/22 08:41:13;;;;;;;32.45;6.18;;;;;;;;;;5075543;28;20063;-71
2021/06/22 08:43:40;;;;;;;27.95;6.05;;;;;;;;;;5075776;28;20074;-71
2021/06/22 08:46:09;;;;;;;37.53;6.57;;;;;;;;;;5075744;28;20031;-71
2021/06/22 08:48:35;;;;;;;44.35;6.40;;;;;;;;;;5075332;28;20068;-71
2021/06/22 08:51:01;;;;;;;46.53;6.80;;;;;;;;;;5075262;28;20031;-71
2021/06/22 08:53:28;;;;;;;35.28;6.72;;;;;;;;;;5075324;28;20456;-71
2021/06/22 08:55:54;;;;;;;35.83;6.05;;;;;;;;;;5075572;28;20013;-71
2021/06/22 08:58:20;;;;;;;34.22;6.35;;;;;;;;;;5075558;28;20056;-72
2021/06/22 09:00:50;;;;;;;33.78;6.30;;;;;;;;;;5075274;28;20029;-71
2021/06/22 09:03:17;;;;;;;32.35;6.55;;;;;;;;;;5075250;28;20032;-71
2021/06/22 09:05:45;;;;;;;46.17;6.43;;;;;;;;;;5075128;28;20024;-71
2021/06/22 09:08:20;;;;;;;46.58;6.60;;;;;;;;;;5075154;28;20036;-72
2021/06/22 09:10:47;;;;;;;41.63;6.20;;;;;;;;;;5075246;28;20032;-71
2021/06/22 09:13:21;;;;;;;33.88;6.40;;;;;;;;;;5075272;28;20025;-72
2021/06/22 09:15:49;;;;;;;31.63;6.05;;;;;;;;;;5075091;28;20025;-72
2021/06/22 09:18:43;;;;;;;39.40;6.47;;;;;;;;;;5074909;28;20115;-71
2021/06/22 09:21:23;;;;;;;35.88;5.97;;;;;;;;;;5071168;28;20086;-71
2021/06/22 09:23:51;;;;;;;42.50;6.07;;;;;;;;;;5074977;28;20072;-72
2021/06/22 09:26:19;;;;;;;32.25;7.18;;;;;;;;;;5075002;28;20091;-71
2021/06/22 09:28:45;;;;;;;45.05;6.60;;;;;;;;;;5074825;28;20086;-71
2021/06/22 09:31:21;;;;;;;40.75;6.05;;;;;;;;;;5074575;28;20027;-72
2021/06/22 09:33:53;;;;;;;41.72;6.25;;;;;;;;;;5074324;28;20033;-72
2021/06/22 09:36:21;;;;;;;;;;;;;;;;;;5074498;28;20020;-72
2021/06/22 09:38:57;;;;;;;38.00;6.72;;;;;;;;;;5073447;28;19908;-72
2021/06/22 09:41:23;;;;;;;37.42;7.38;;;;;;;;;;5069436;28;20163;-72
2021/06/22 09:43:59;;;;;;;45.05;7.50;;;;;;;;;;5070739;28;20075;-72
2021/06/22 09:46:44;;;;;;;30.23;5.90;;;;;;;;;;5072906;28;20020;-72
2021/06/22 09:49:12;;;;;;;37.15;6.50;;;;;;;;;;5073723;28;20021;-72
2021/06/22 09:51:41;;;;;;;41.58;6.43;;;;;;;;;;5073128;28;20134;-73
2021/06/22 09:54:08;;;;;;;32.03;6.63;;;;;;;;;;5073500;28;20075;-72
2021/06/22 09:56:34;;;;;;;40.60;6.43;;;;;;;;;;5074059;28;20021;-72
2021/06/22 09:59:06;;;;;;;45.38;7.30;;;;;;;;;;5074247;28;20122;-72
2021/06/22 10:01:37;;;;;;;38.17;6.18;;;;;;;;;;5073624;28;20016;-74
2021/06/22 10:04:14;;;;;;;40.90;7.03;;;;;;;;;;5073538;28;20070;-71
2021/06/22 10:06:41;;;;;;;36.97;7.57;;;;;;;;;;5074075;28;20381;-72
2021/06/22 10:09:07;;;;;;;35.30;6.57;;;;;;;;;;5073445;28;20032;-71
2021/06/22 10:11:36;;;;;;;47.92;6.22;;;;;;;;;;5073976;28;20029;-71
2021/06/22 10:14:03;;;;;;;45.83;7.88;;;;;;;;;;5073679;28;20035;-71
2021/06/22 10:16:31;;;;;;;42.03;6.40;;;;;;;;;;5073301;28;20042;-72
2021/06/22 10:18:57;;;;;;;47.53;7.40;;;;;;;;;;5073470;28;20028;-72
2021/06/22 10:21:24;;;;;;;42.13;6.55;;;;;;;;;;5073424;28;20124;-71
2021/06/22 10:23:51;;;;;;;37.80;6.43;;;;;;;;;;5073104;28;20215;-72
2021/06/22 10:26:18;;;;;;;39.58;5.80;;;;;;;;;;5071443;28;20024;-72
2021/06/22 10:28:47;;;;;;;33.13;6.57;;;;;;;;;;5070892;28;20439;-72
2021/06/22 10:31:13;;;;;;;40.30;7.65;;;;;;;;;;5071959;28;20488;-72
2021/06/22 10:33:39;;;;;;;44.25;6.60;;;;;;;;;;5073350;28;20036;-72
2021/06/22 10:36:06;;;;;;;65.07;7.75;;;;;;;;;;5073164;28;20025;-72
2021/06/22 10:38:39;;;;;;;35.05;6.78;;;;;;;;;;5073088;28;20086;-72
2021/06/22 10:41:05;;;;;;;54.25;7.70;;;;;;;;;;5073027;28;20097;-72
2021/06/22 10:43:35;;;;;;;48.58;6.57;;;;;;;;;;5072475;28;20384;-72
2021/06/22 10:46:05;;;;;;;42.78;7.28;;;;;;;;;;5072156;28;20028;-72
2021/06/22 10:48:41;;;;;;;39.92;6.90;;;;;;;;;;5072889;28;20118;-72
2021/06/22 10:51:26;;;;;;;36.30;6.70;;;;;;;;;;5070478;28;20025;-71
2021/06/22 10:53:53;;;;;;;42.72;8.25;;;;;;;;;;5070288;28;20134;-70
2021/06/22 10:56:24;;;;;;;42.88;6.68;;;;;;;;;;5071812;28;20017;-72
2021/06/22 10:59:08;;;;;;;43.20;6.70;;;;;;;;;;5072975;28;20370;-73
2021/06/22 11:01:55;;;;;;;33.03;6.30;;;;;;;;;;5073001;28;20029;-72
2021/06/22 11:04:22;;;;;;;41.10;6.65;;;;;;;;;;5072688;28;20108;-72
2021/06/22 11:07:06;;;;;;;44.35;7.35;;;;;;;;;;5072906;28;20073;-72
2021/06/22 11:09:33;;;;;;;41.42;5.88;;;;;;;;;;5072890;28;20074;-71
2021/06/22 11:12:18;;;;;;;32.53;5.35;;;;;;;;;;5072806;28;20381;-72
2021/06/22 11:15:02;;;;;;;31.80;5.97;;;;;;;;;;5072423;28;20074;-72
2021/06/22 11:17:43;;;;;;;36.85;6.10;;;;;;;;;;5072680;28;20031;-69
2021/06/22 11:20:13;;;;;;;35.42;6.03;;;;;;;;;;5072174;28;20380;-70
2021/06/22 11:23:21;;;;;;;34.60;6.55;;;;;;;;;;5072331;28;20024;-71
2021/06/22 11:25:46;;;;;;;38.95;5.88;;;;;;;;;;4991222;28;20027;-70
2021/06/22 11:28:13;;;;;;;45.55;6.20;;;;;;;;;;5059651;28;20043;-70
2021/06/22 11:30:51;;;;;;;42.88;5.72;;;;;;;;;;5072724;28;20032;-68
2021/06/22 11:33:29;;;;;;;34.47;6.53;;;;;;;;;;5072686;28;20099;-69
2021/06/22 11:36:13;;;;;;;40.47;6.25;;;;;;;;;;5072453;28;20037;-69
2021/06/22 11:38:39;;;;;;;40.13;6.55;;;;;;;;;;5072026;28;20035;-68
2021/06/22 11:41:13;;;;;;;39.10;6.35;;;;;;;;;;5070167;28;20048;-69
2021/06/22 11:43:58;;;;;;;43.80;7.25;;;;;;;;;;5072859;28;20041;-69
2021/06/22 11:46:31;;;;;;;30.05;5.68;;;;;;;;;;5076458;28;20032;-68
2021/06/22 11:48:57;;;;;;;44.40;6.60;;;;;;;;;;5076474;28;20021;-68
2021/06/22 11:51:42;;;;;;;39.28;6.63;;;;;;;;;;5076240;28;20036;-69
2021/06/22 11:54:08;;;;;;;43.33;6.88;;;;;;;;;;5075260;28;20114;-70
2021/06/22 11:56:35;;;;;;;46.05;8.07;;;;;;;;;;5076163;28;20465;-70
2021/06/22 11:59:02;;;;;;;37.90;5.50;;;;;;;;;;5076157;28;20103;-72
2021/06/22 12:01:28;;;;;;;38.03;7.03;;;;;;;;;;5076271;28;20023;-73
2021/06/22 12:03:54;;;;;;;42.55;8.00;;;;;;;;;;5075995;28;20571;-70
2021/06/22 12:06:24;;;;;;;41.75;6.55;;;;;;;;;;5075292;28;20078;-70
2021/06/22 12:08:50;;;;;;;41.17;6.50;;;;;;;;;;5074675;28;20028;-71
2021/06/22 12:11:30;;;;;;;42.97;6.70;;;;;;;;;;5075100;28;20109;-76
2021/06/22 12:13:56;;;;;;;53.85;7.47;;;;;;;;;;5073127;28;20025;-70
2021/06/22 12:16:25;;;;;;;32.92;6.63;;;;;;;;;;5073013;28;20020;-71
2021/06/22 12:18:56;;;;;;;47.35;7.15;;;;;;;;;;5074318;28;20078;-71
2021/06/22 12:21:22;;;;;;;40.35;6.63;;;;;;;;;;5074477;28;20049;-71
2021/06/22 12:23:48;;;;;;;45.30;7.43;;;;;;;;;;5076114;28;20381;-71
2021/06/22 12:26:16;;;;;;;55.40;7.40;;;;;;;;;;5074710;28;20044;-71
2021/06/22 12:28:43;;;;;;;40.20;6.45;;;;;;;;;;5074679;28;20150;-71
2021/06/22 12:31:09;;;;;;;29.27;6.22;;;;;;;;;;5075735;28;20023;-71
2021/06/22 12:33:45;;;;;;;44.97;7.15;;;;;;;;;;5074917;28;20059;-71
2021/06/22 12:36:14;;;;;;;39.95;6.90;;;;;;;;;;5074338;28;20385;-71
2021/06/22 12:38:41;;;;;;;46.45;7.18;;;;;;;;;;5073792;28;20032;-71
2021/06/22 12:41:11;;;;;;;34.05;6.55;;;;;;;;;;5074651;28;20563;-71
2021/06/22 12:43:40;;;;;;;48.50;7.00;;;;;;;;;;5075388;28;20040;-71
2021/06/22 12:46:06;;;;;;;56.35;7.93;;;;;;;;;;5075803;28;20056;-71
2021/06/22 12:48:32;;;;;;;44.53;6.78;;;;;;;;;;5075791;28;20112;-70
2021/06/22 12:50:59;;;;;;;46.45;6.80;;;;;;;;;;5075311;28;20021;-71
2021/06/22 12:53:28;;;;;;;46.60;6.97;;;;;;;;;;5075476;28;20043;-70
2021/06/22 12:56:05;;;;;;;44.00;6.88;;;;;;;;;;5073664;28;20067;-71
2021/06/22 12:58:44;;;;;;;38.65;7.32;;;;;;;;;;5074456;28;20028;-71
2021/06/22 13:01:25;;;;;;;51.70;7.38;;;;;;;;;;5075161;28;20052;-71
2021/06/22 13:03:51;;;;;;;55.92;7.82;;;;;;;;;;5075189;28;20037;-71
2021/06/22 13:06:25;;;;;;;46.60;6.60;;;;;;;;;;5074869;28;20101;-70
2021/06/22 13:08:52;;;;;;;47.28;6.78;;;;;;;;;;5074339;28;20025;-70
2021/06/22 13:11:24;;;;;;;50.75;6.60;;;;;;;;;;5074395;28;20036;-71
2021/06/22 13:13:50;;;;;;;43.53;7.22;;;;;;;;;;5074752;28;20032;-71
2021/06/22 13:16:16;;;;;;;44.50;6.97;;;;;;;;;;5073176;28;20445;-73
2021/06/22 13:18:54;;;;;;;39.60;6.28;;;;;;;;;;5074517;28;20036;-71
2021/06/22 13:21:20;;;;;;;48.67;6.88;;;;;;;;;;5074380;28;20033;-75
2021/06/22 13:23:46;;;;;;;46.30;6.78;;;;;;;;;;5074070;28;20094;-71
2021/06/22 13:26:12;;;;;;;44.42;6.32;;;;;;;;;;5072984;28;20036;-71
2021/06/22 13:28:38;;;;;;;47.85;7.53;;;;;;;;;;5074073;28;20048;-71
2021/06/22 13:31:15;;;;;;;45.70;5.97;;;;;;;;;;5074088;28;20643;-71
2021/06/22 13:33:41;;;;;;;36.75;6.05;;;;;;;;;;5073659;28;20025;-71
2021/06/22 13:36:07;;;;;;;35.53;5.35;;;;;;;;;;5074468;28;20023;-70
2021/06/22 13:38:35;;;;;;;40.50;6.05;;;;;;;;;;5072917;28;20472;-71
2021/06/22 13:41:03;;;;;;;35.72;5.43;;;;;;;;;;5073529;28;20409;-73
2021/06/22 13:43:29;;;;;;;37.38;6.00;;;;;;;;;;5073859;28;20029;-71
2021/06/22 13:45:56;;;;;;;37.80;6.20;;;;;;;;;;5072165;28;20103;-71
2021/06/22 13:48:23;;;;;;;36.40;5.40;;;;;;;;;;5074374;28;20017;-71
2021/06/22 13:50:49;;;;;;;44.47;7.05;;;;;;;;;;5074110;28;20032;-72
2021/06/22 13:53:23;;;;;;;30.63;5.10;;;;;;;;;;5073303;28;20021;-71
2021/06/22 13:55:49;;;;;;;31.77;6.00;;;;;;;;;;5073676;28;20074;-71
2021/06/22 13:58:18;;;;;;;31.77;4.95;;;;;;;;;;5073784;28;20100;-74
2021/06/22 14:00:46;;;;;;;40.67;5.70;;;;;;;;;;5073481;28;20469;-72
2021/06/22 14:03:12;;;;;;;32.65;5.65;;;;;;;;;;5073533;28;20026;-71
2021/06/22 14:05:39;;;;;;;31.00;5.63;;;;;;;;;;5073153;28;20070;-71
2021/06/22 14:08:06;;;;;;;32.42;5.13;;;;;;;;;;5073049;28;20029;-70
2021/06/22 14:10:33;;;;;;;37.65;6.25;;;;;;;;;;5071104;28;20036;-70
2021/06/22 14:13:00;;;;;;;40.47;6.38;;;;;;;;;;5072941;28;20032;-70
2021/06/22 14:15:26;;;;;;;27.83;5.30;;;;;;;;;;5073063;28;20032;-72
2021/06/22 14:17:53;;;;;;;32.50;5.13;;;;;;;;;;5073160;28;20465;-71
2021/06/22 14:20:20;;;;;;;31.40;4.97;;;;;;;;;;5072707;28;20016;-70
2021/06/22 14:22:46;;;;;;;37.75;6.00;;;;;;;;;;5072147;28;20029;-70
2021/06/22 14:25:13;;;;;;;39.63;5.07;;;;;;;;;;5070450;28;20035;-70
2021/06/22 14:27:39;;;;;;;31.08;4.93;;;;;;;;;;5069865;28;20385;-70
2021/06/22 14:30:06;;;;;;;29.60;5.45;;;;;;;;;;5071995;28;20035;-70
2021/06/22 14:32:32;;;;;;;28.00;4.35;;;;;;;;;;5073462;28;20028;-70
2021/06/22 14:35:00;;;;;;;22.55;3.88;;;;;;;;;;5073096;28;20086;-70